Details From EGLL - London Heathrow
To MWCR - Owen Roberts Intl
Flight Number -
Tags Generated
Created
Modified
Stats Distance 4,169 nm / 7,722 km
Max Altitude 0 ft / 0 m
Waypoints 5
Social Downloads 4
Likes 0
Share VATSIM

Download

Looking for another format? Having issues loading an existing format? Contact us
Advertisement - Login to hide

Notes

Generated

Route

EGLL NORLA G GCM MWCR

ID Type Via Altitude Latitude Longitude Leg Dist Tot Dist Heading (true) Name
O EGLL APT - 0 ft / 0 m 51.46477˚ -0.48695˚ - 0 nm - -
NORLA FIX - 0 ft / 0 m 51.61917˚ -6.86972˚ 238 nm 238 nm 275° / 270° -
G NDB - 0 ft / 0 m 22.01610˚ -78.81356˚ 3712 nm 3951 nm 270° / 222° CIEGO DE AVILA NDB
GCM VOR - 0 ft / 0 m 19.28939˚ -81.37203˚ 217 nm 4169 nm 222° / 221° GRAND CAYMAN VOR-DME
O MWCR APT - 0 ft / 0 m 19.29042˚ -81.36764˚ 0 nm 4169 nm 76° / 76° -

Altitude Profile

Advertisement - Login to hide

Weather


0- 5 10 15 20 25 30 35+ Temperature / ° C

Clouds and Precipitation
Forecast for 2018-05-22 00:00 UTC. Updated 4 hours ago

Ground ~20,000 ft ~40,000 ft Winds

EGLL

Details ICAO EGLL (LHR)
Name London Heathrow
Region United Kingdom
Timezone Europe/London (UTC+1.0)
Stats Elevation 83 ft / 25 m (AMSL)
Location 51.471218° -0.460978°
Runways 2
Magnetic Variation 0.496° W

METAR

EGLL 220250Z AUTO 35004KT 310V040 9999 NCD 13/10 Q1014 NOSIG

Decode

TAF

TAF EGLL 212303Z 2200/2306 01005KT 9999 FEW045 PROB30 TEMPO 2200/2209 8000 -SHRA PROB30 TEMPO 2213/2217 4000 +SHRA PROB30 TEMPO 2300/2306 7000

Decode

Departure Runways

ID Width Length Bearing (true) Bearing (mag) Surface Threshold Offset Overrun Length
09L 164 ft / 50 m 12,811 ft / 3,905 m 89.64° 90.14° Asphalt 1,004 ft / 306 m 0 ft / 0 m
09R 164 ft / 50 m 12,019 ft / 3,663 m 89.67° 90.17° Asphalt 1,007 ft / 307 m 0 ft / 0 m
27L 164 ft / 50 m 12,019 ft / 3,663 m 269.71° 270.21° Asphalt 0 ft / 0 m 69 ft / 21 m
27R 164 ft / 50 m 12,811 ft / 3,905 m 269.69° 270.19° Asphalt 0 ft / 0 m 69 ft / 21 m

MWCR

Details ICAO MWCR (GCM)
Name Owen Roberts Intl
Region Cayman Islands
Timezone America/Cayman (UTC-5.0)
Stats Elevation 7 ft / 2 m (AMSL)
Location 19.292776° -81.357760°
Runways 1
Magnetic Variation 5.043° W

METAR

MWCR 220300Z 09009KT 4800 -RA FEW015 OVC070 23/23 Q1013

Decode

TAF

TAF TAF MWCR 220300Z 2200/2224 CNL

Decode

Destination Runways

ID Width Length Bearing (true) Bearing (mag) Surface Threshold Offset Overrun Length
08 148 ft / 45 m 7,016 ft / 2,139 m 75.84° 80.88° Asphalt 0 ft / 0 m 0 ft / 0 m
26 148 ft / 45 m 7,016 ft / 2,139 m 255.85° 260.89° Asphalt 400 ft / 122 m 0 ft / 0 m

Popular Alternatives